logo
Search for airport 
image banner adimage banner adimage banner ad
image banner ad

ED0007 - Riesa-Canitz

Located in , Germany

ICAO - , IATA -

Data provided by Airmate  

General information

Coordinates: N51°18'8" E13°13'23"
Elevation is 404 feet MSL.
 
View others Airports in Saxony

Operational data

Special qualification required
Current time UTC:
Current local time:
Weather at : EDDC - Dresden ( 42 km )
METAR: EDDC 302220Z AUTO 23006KT CAVOK 14/11 Q1005
TAF: TAF EDDC 301700Z 3018/3118 15005KT 9999 FEW045 BECMG 3018/3020 21005KT TEMPO 3018/3020 4000 SHRA BKN035CB PROB30 TEMPO 3018/3020 TSRA BKN035CB BECMG 3022/3102 4000 BR BKN008 TEMPO 3100/3106 2500 BR BKN004 BECMG 3105/3108 32005KT 9999 BKN012 BECMG 3108/3111 SCT020 TEMPO 3116/3118 3000 SHRA BKN025CB
View NOTAMs / SUP AIP / TFR affecting this airport [VIEW]
Communications frequencies: [VIEW]

Runways:

RWY identifierQFULength (ft)Width (ft)SurfaceLDA (ft)
0990°3281164GRASS
27270°3281164GRASS

Airport contact information

Address: Germany

Satellite view of ED0007